createdAt,value
2018-09-21T00:00:14.715Z,15.30
2018-09-21T00:02:49.655Z,15.30
2018-09-21T00:05:24.774Z,15.30
2018-09-21T00:07:59.763Z,15.20
2018-09-21T00:10:34.954Z,15.30
2018-09-21T00:13:09.635Z,15.20
2018-09-21T00:15:44.333Z,15.20
2018-09-21T00:18:19.204Z,15.10
2018-09-21T00:20:54.094Z,15.10
2018-09-21T00:23:28.859Z,15.10
2018-09-21T00:26:04.715Z,14.90
2018-09-21T00:28:39.770Z,14.90
2018-09-21T00:31:14.753Z,14.70
2018-09-21T00:33:49.488Z,14.80
2018-09-21T00:36:24.662Z,14.80
2018-09-21T00:38:59.535Z,14.70
2018-09-21T00:41:34.505Z,14.50
2018-09-21T00:44:09.817Z,14.70
2018-09-21T00:46:45.032Z,14.70
2018-09-21T00:49:20.018Z,14.80
2018-09-21T00:51:54.779Z,14.60
2018-09-21T00:54:30.282Z,14.60
2018-09-21T00:57:05.311Z,14.70
2018-09-21T00:59:40.118Z,14.60
2018-09-21T01:02:15.645Z,14.60
2018-09-21T01:04:50.771Z,14.60
2018-09-21T01:07:26.185Z,14.60
2018-09-21T01:10:00.932Z,14.50
2018-09-21T01:12:35.593Z,14.50
2018-09-21T01:15:10.442Z,14.40
2018-09-21T01:17:45.424Z,14.50
2018-09-21T01:20:20.947Z,14.50
2018-09-21T01:22:55.638Z,14.40
2018-09-21T01:25:30.329Z,14.40
2018-09-21T01:28:05.190Z,14.40
2018-09-21T01:30:40.183Z,14.40
2018-09-21T01:33:15.342Z,14.40
2018-09-21T01:35:50.419Z,14.40
2018-09-21T01:38:25.840Z,14.20
2018-09-21T01:41:00.797Z,13.90
2018-09-21T01:43:35.682Z,14.10
2018-09-21T01:46:11.002Z,14.10
2018-09-21T01:48:45.822Z,14.10
2018-09-21T01:51:20.795Z,14.20
2018-09-21T01:53:55.838Z,14.30
2018-09-21T01:56:30.809Z,14.30
2018-09-21T01:59:05.757Z,14.40
2018-09-21T02:01:40.477Z,14.50
2018-09-21T02:04:15.427Z,14.40
2018-09-21T02:06:50.254Z,14.30
2018-09-21T02:09:25.376Z,14.40
2018-09-21T02:12:00.382Z,14.40
2018-09-21T02:14:35.595Z,14.20
2018-09-21T02:17:10.614Z,14.40
2018-09-21T02:19:46.967Z,14.20
2018-09-21T02:22:21.722Z,14.30
2018-09-21T02:24:56.754Z,14.30
2018-09-21T02:27:31.809Z,14.30
2018-09-21T02:30:06.885Z,14.40
2018-09-21T02:32:41.859Z,14.50
2018-09-21T02:35:16.987Z,14.70
2018-09-21T02:37:51.986Z,14.60
2018-09-21T02:40:27.169Z,14.60
2018-09-21T02:43:01.988Z,14.60
2018-09-21T02:45:36.959Z,14.60
2018-09-21T02:48:12.134Z,14.60
2018-09-21T02:50:47.567Z,14.60
2018-09-21T02:53:22.516Z,14.60
2018-09-21T02:55:57.234Z,14.40
2018-09-21T02:58:32.635Z,14.40
2018-09-21T03:01:07.709Z,14.60
2018-09-21T03:03:42.675Z,14.70
2018-09-21T03:06:17.635Z,14.80
2018-09-21T03:08:52.514Z,14.70
2018-09-21T03:11:27.188Z,15.10
2018-09-21T03:14:01.839Z,15.40
2018-09-21T03:16:36.639Z,15.40
2018-09-21T03:19:11.511Z,15.40
2018-09-21T03:21:46.523Z,15.40
2018-09-21T03:24:22.562Z,15.60
2018-09-21T03:26:57.522Z,15.50
2018-09-21T03:29:32.645Z,15.50
2018-09-21T03:32:08.060Z,15.50
2018-09-21T03:34:42.710Z,15.50
2018-09-21T03:37:17.925Z,15.30
2018-09-21T03:39:53.100Z,16.00
2018-09-21T03:42:28.536Z,15.60
2018-09-21T03:45:03.997Z,15.50
2018-09-21T03:47:38.614Z,15.50
2018-09-21T03:50:13.471Z,15.30
2018-09-21T03:52:48.345Z,15.30
2018-09-21T03:55:23.246Z,15.30
2018-09-21T03:57:58.033Z,15.30
2018-09-21T04:00:33.216Z,15.20
2018-09-21T04:03:08.111Z,15.30
2018-09-21T04:05:43.068Z,15.40
2018-09-21T04:08:17.997Z,15.30
2018-09-21T04:10:52.786Z,15.30
2018-09-21T04:13:27.893Z,15.30
2018-09-21T04:16:02.882Z,15.20
2018-09-21T04:18:37.970Z,15.20
2018-09-21T04:21:12.731Z,15.20
2018-09-21T04:23:47.368Z,15.20
2018-09-21T04:26:22.403Z,15.10
2018-09-21T04:28:56.989Z,15.00
2018-09-21T04:31:32.133Z,15.00
2018-09-21T04:34:07.053Z,15.10
2018-09-21T04:36:41.744Z,15.10
2018-09-21T04:39:16.582Z,14.90
2018-09-21T04:41:51.706Z,14.90
2018-09-21T04:44:26.890Z,14.80
2018-09-21T04:47:02.487Z,14.90
2018-09-21T04:49:37.218Z,14.90
2018-09-21T04:52:12.562Z,14.90
2018-09-21T04:54:47.328Z,14.70
2018-09-21T04:57:22.261Z,14.80
2018-09-21T04:59:57.228Z,14.70
2018-09-21T05:02:32.025Z,14.70
2018-09-21T05:05:07.349Z,14.70
2018-09-21T05:07:42.862Z,14.60
2018-09-21T05:10:17.537Z,14.60
2018-09-21T05:12:52.345Z,14.60
2018-09-21T05:15:27.734Z,14.70
2018-09-21T05:18:02.449Z,14.70
2018-09-21T05:20:37.504Z,14.60
2018-09-21T05:23:12.216Z,14.80
2018-09-21T05:25:47.068Z,14.80
2018-09-21T05:28:21.866Z,15.10
2018-09-21T05:30:56.657Z,15.90
2018-09-21T05:33:31.340Z,16.50
2018-09-21T05:36:07.237Z,16.70
2018-09-21T05:38:42.094Z,17.10
2018-09-21T05:41:17.346Z,17.30
2018-09-21T05:43:52.554Z,17.40
2018-09-21T05:46:27.617Z,17.70
2018-09-21T05:49:02.742Z,17.90
2018-09-21T05:51:37.879Z,18.00
2018-09-21T05:54:13.208Z,18.30
2018-09-21T05:56:50.024Z,18.50
2018-09-21T05:59:25.315Z,18.50
2018-09-21T06:02:00.739Z,18.60
2018-09-21T06:04:36.306Z,19.00
2018-09-21T06:07:11.703Z,19.20
2018-09-21T06:09:47.149Z,19.30
2018-09-21T06:12:22.341Z,19.40
2018-09-21T06:14:57.574Z,19.50
2018-09-21T06:17:33.017Z,19.60
2018-09-21T06:20:12.185Z,19.90
2018-09-21T06:22:45.398Z,19.90
2018-09-21T06:25:19.572Z,20.00
2018-09-21T06:27:54.986Z,20.20
2018-09-21T06:30:31.014Z,20.30
2018-09-21T06:33:06.511Z,20.30
2018-09-21T06:35:41.919Z,20.40
2018-09-21T06:38:17.274Z,20.60
2018-09-21T06:40:52.668Z,20.60
2018-09-21T06:43:27.977Z,20.80
2018-09-21T06:46:03.213Z,20.90
2018-09-21T06:48:38.738Z,21.00
2018-09-21T06:51:14.186Z,21.10
2018-09-21T06:53:49.578Z,21.30
2018-09-21T06:56:25.287Z,21.40
2018-09-21T06:59:01.438Z,21.50
2018-09-21T07:01:36.793Z,21.70
2018-09-21T07:04:12.321Z,21.80
2018-09-21T07:06:48.102Z,22.00
2018-09-21T07:09:23.511Z,22.10
2018-09-21T07:11:58.947Z,22.20
2018-09-21T07:14:34.305Z,22.40
2018-09-21T07:17:09.537Z,22.50
2018-09-21T07:19:45.577Z,22.60
2018-09-21T07:22:22.033Z,22.70
2018-09-21T07:24:57.369Z,22.80
2018-09-21T07:27:32.714Z,22.90
2018-09-21T07:30:08.170Z,23.10
2018-09-21T07:32:44.378Z,23.20
2018-09-21T07:35:19.755Z,23.40
2018-09-21T07:37:55.335Z,23.70
2018-09-21T07:40:30.788Z,23.90
2018-09-21T07:43:06.283Z,24.00
2018-09-21T07:45:41.813Z,24.20
2018-09-21T07:48:17.256Z,24.40
2018-09-21T07:50:52.670Z,24.60
2018-09-21T07:53:28.126Z,24.80
2018-09-21T07:56:03.399Z,25.00
2018-09-21T07:58:39.435Z,25.00
2018-09-21T08:01:14.757Z,25.00
2018-09-21T08:03:50.262Z,24.90
2018-09-21T08:06:26.214Z,24.80
2018-09-21T08:09:01.437Z,24.80
2018-09-21T08:11:37.227Z,24.90
2018-09-21T08:14:13.394Z,24.80
2018-09-21T08:16:48.749Z,24.70
2018-09-21T08:19:23.940Z,24.60
2018-09-21T08:21:59.608Z,24.50
2018-09-21T08:24:35.075Z,24.30
2018-09-21T08:27:12.066Z,24.30
2018-09-21T08:29:47.586Z,24.30
2018-09-21T08:32:23.136Z,24.30
2018-09-21T08:34:58.960Z,24.40
2018-09-21T08:37:34.298Z,24.50
2018-09-21T08:40:09.865Z,24.70
2018-09-21T08:42:45.141Z,24.90
2018-09-21T08:45:20.478Z,25.30
2018-09-21T08:47:56.925Z,25.30
2018-09-21T08:50:32.365Z,25.30
2018-09-21T08:53:07.767Z,25.10
2018-09-21T08:55:44.167Z,25.00
2018-09-21T08:58:20.291Z,25.40
2018-09-21T09:00:55.991Z,25.70
2018-09-21T09:03:31.424Z,26.30
2018-09-21T09:06:06.876Z,27.50
2018-09-21T09:08:41.770Z,28.70
2018-09-21T09:11:16.794Z,28.90
2018-09-21T09:13:52.036Z,28.50
2018-09-21T09:16:27.169Z,27.70
2018-09-21T09:19:02.917Z,27.00
2018-09-21T09:21:38.046Z,27.10
2018-09-21T09:24:13.229Z,27.70
2018-09-21T09:26:48.322Z,27.70
2018-09-21T09:29:23.666Z,27.80
2018-09-21T09:31:59.007Z,27.80
2018-09-21T09:34:34.450Z,27.50
2018-09-21T09:37:09.841Z,26.70
2018-09-21T09:39:45.227Z,26.20
2018-09-21T09:42:20.694Z,26.30
2018-09-21T09:44:55.965Z,26.30
2018-09-21T09:47:31.386Z,26.20
2018-09-21T09:50:07.709Z,26.30
2018-09-21T09:52:43.358Z,26.10
2018-09-21T09:55:18.734Z,26.40
2018-09-21T09:57:54.134Z,26.20
2018-09-21T10:00:34.831Z,26.30
2018-09-21T10:03:10.021Z,26.80
2018-09-21T10:05:45.347Z,27.00
2018-09-21T10:08:20.791Z,26.70
2018-09-21T10:10:56.137Z,27.50
2018-09-21T10:13:31.168Z,28.20
2018-09-21T10:16:06.098Z,28.00
2018-09-21T10:18:41.042Z,27.70
2018-09-21T10:21:16.135Z,27.80
2018-09-21T10:23:51.226Z,27.70
2018-09-21T10:26:26.755Z,27.60
2018-09-21T10:29:03.119Z,27.30
2018-09-21T10:31:38.489Z,27.40
2018-09-21T10:34:13.731Z,27.30
2018-09-21T10:36:48.946Z,27.00
2018-09-21T10:39:24.287Z,26.90
2018-09-21T10:41:59.641Z,26.60
2018-09-21T10:44:35.275Z,26.50
2018-09-21T10:47:11.117Z,26.60
2018-09-21T10:49:46.297Z,26.30
2018-09-21T10:52:21.522Z,26.30
2018-09-21T10:54:57.784Z,26.30
2018-09-21T10:57:33.350Z,26.80
2018-09-21T11:00:09.504Z,27.50
2018-09-21T11:02:46.065Z,28.00
2018-09-21T11:05:21.494Z,27.60
2018-09-21T11:07:57.006Z,27.20
2018-09-21T11:10:32.527Z,27.00
2018-09-21T11:13:08.282Z,26.80
2018-09-21T11:15:43.712Z,26.70
2018-09-21T11:18:19.169Z,26.90
2018-09-21T11:20:54.332Z,27.00
2018-09-21T11:23:29.788Z,26.90
2018-09-21T11:26:05.183Z,27.10
2018-09-21T11:28:40.510Z,26.90
2018-09-21T11:31:15.794Z,27.50
2018-09-21T11:33:51.178Z,27.80
2018-09-21T11:36:26.297Z,27.80
2018-09-21T11:39:01.465Z,28.30
2018-09-21T11:41:36.502Z,28.70
2018-09-21T11:44:12.028Z,27.60
2018-09-21T11:46:47.934Z,27.20
2018-09-21T11:49:23.642Z,27.40
2018-09-21T11:51:59.000Z,27.10
2018-09-21T11:54:34.443Z,26.70
2018-09-21T11:57:10.030Z,26.40
2018-09-21T11:59:45.307Z,26.50
2018-09-21T12:02:21.317Z,26.40
2018-09-21T12:04:56.824Z,26.30
2018-09-21T12:07:32.340Z,26.20
2018-09-21T12:10:07.848Z,26.20
2018-09-21T12:12:43.114Z,26.30
2018-09-21T12:15:18.518Z,26.00
2018-09-21T12:17:54.144Z,26.20
2018-09-21T12:20:30.013Z,26.10
2018-09-21T12:23:05.150Z,26.10
2018-09-21T12:25:40.508Z,26.00
2018-09-21T12:28:16.208Z,26.10
2018-09-21T12:30:51.950Z,26.10
2018-09-21T12:33:27.394Z,25.80
2018-09-21T12:36:03.299Z,25.80
2018-09-21T12:38:38.794Z,25.80
2018-09-21T12:41:14.766Z,25.70
2018-09-21T12:43:50.164Z,25.70
2018-09-21T12:46:27.797Z,25.40
2018-09-21T12:49:04.910Z,25.40
2018-09-21T12:51:40.591Z,25.20
2018-09-21T12:54:16.672Z,25.40
2018-09-21T12:56:52.218Z,25.30
2018-09-21T12:59:27.925Z,25.10
2018-09-21T13:02:03.258Z,25.00
2018-09-21T13:04:38.650Z,25.00
2018-09-21T13:07:13.973Z,25.00
2018-09-21T13:09:49.535Z,24.90
2018-09-21T13:12:25.093Z,24.80
2018-09-21T13:15:00.929Z,24.70
2018-09-21T13:17:36.275Z,24.70
2018-09-21T13:20:11.658Z,24.70
2018-09-21T13:22:47.028Z,24.60
2018-09-21T13:25:22.555Z,24.80
2018-09-21T13:27:58.788Z,24.60
2018-09-21T13:30:34.282Z,24.40
2018-09-21T13:33:09.849Z,24.30
2018-09-21T13:35:45.772Z,24.20
2018-09-21T13:38:21.850Z,24.30
2018-09-21T13:40:58.024Z,24.30
2018-09-21T13:43:33.217Z,24.30
2018-09-21T13:46:09.014Z,24.20
2018-09-21T13:48:45.350Z,24.20
2018-09-21T13:51:21.011Z,24.10
2018-09-21T13:53:56.803Z,24.30
2018-09-21T13:56:32.323Z,24.60
2018-09-21T13:59:07.914Z,24.80
2018-09-21T14:01:44.865Z,24.60
2018-09-21T14:04:20.116Z,24.80
2018-09-21T14:06:55.767Z,24.90
2018-09-21T14:09:31.665Z,25.00
2018-09-21T14:12:07.167Z,24.80
2018-09-21T14:14:42.678Z,24.60
2018-09-21T14:17:18.396Z,24.40
2018-09-21T14:19:53.962Z,24.30
2018-09-21T14:22:29.319Z,24.20
2018-09-21T14:25:04.841Z,24.00
2018-09-21T14:27:40.994Z,24.00
2018-09-21T14:30:16.415Z,24.00
2018-09-21T14:32:51.924Z,24.10
2018-09-21T14:35:27.775Z,24.20
2018-09-21T14:38:03.451Z,24.30
2018-09-21T14:40:39.052Z,24.30
2018-09-21T14:43:14.853Z,24.20
2018-09-21T14:45:50.348Z,24.20
2018-09-21T14:48:25.998Z,24.10
2018-09-21T14:51:01.365Z,24.00
2018-09-21T14:53:36.600Z,24.00
2018-09-21T14:56:12.334Z,24.00
2018-09-21T14:58:47.974Z,23.90
2018-09-21T15:01:23.817Z,24.00
2018-09-21T15:03:59.306Z,23.90
2018-09-21T15:06:34.774Z,23.90
2018-09-21T15:09:11.102Z,23.70
2018-09-21T15:11:46.652Z,23.50
2018-09-21T15:14:22.282Z,23.50
2018-09-21T15:16:57.702Z,23.40
2018-09-21T15:19:33.052Z,23.30
2018-09-21T15:22:08.422Z,23.20
2018-09-21T15:24:44.774Z,23.20
2018-09-21T15:27:20.180Z,23.20
2018-09-21T15:29:55.758Z,23.30
2018-09-21T15:32:31.011Z,23.20
2018-09-21T15:35:06.574Z,23.20
2018-09-21T15:37:42.222Z,23.10
2018-09-21T15:40:17.638Z,23.20
2018-09-21T15:42:52.918Z,23.20
2018-09-21T15:45:28.757Z,23.10
2018-09-21T15:48:04.069Z,23.00
2018-09-21T15:50:39.934Z,22.80
2018-09-21T15:53:15.228Z,22.70
2018-09-21T15:55:50.950Z,22.60
2018-09-21T15:58:26.306Z,22.60
2018-09-21T16:01:02.134Z,22.60
2018-09-21T16:03:38.081Z,22.50
2018-09-21T16:06:13.519Z,22.50
2018-09-21T16:08:48.892Z,22.50
2018-09-21T16:11:25.251Z,22.30
2018-09-21T16:14:00.602Z,22.00
2018-09-21T16:16:37.448Z,21.60
2018-09-21T16:19:12.907Z,20.70
2018-09-21T16:21:48.429Z,20.40
2018-09-21T16:24:24.011Z,19.40
2018-09-21T16:26:59.715Z,19.50
2018-09-21T16:29:35.398Z,19.50
2018-09-21T16:32:11.022Z,18.40
2018-09-21T16:34:46.151Z,18.90
2018-09-21T16:37:22.214Z,17.90
2018-09-21T16:39:57.893Z,17.60
2018-09-21T16:42:33.609Z,17.60
2018-09-21T16:45:09.046Z,17.70
2018-09-21T16:47:45.284Z,17.50
2018-09-21T16:50:20.838Z,17.40
2018-09-21T16:52:56.148Z,16.70
2018-09-21T16:55:32.700Z,16.30
2018-09-21T16:58:08.235Z,16.80
2018-09-21T17:00:43.914Z,16.80
2018-09-21T17:03:20.526Z,16.20
2018-09-21T17:05:56.183Z,16.40
2018-09-21T17:08:31.669Z,16.80
2018-09-21T17:11:07.586Z,16.40
2018-09-21T17:13:42.322Z,16.60
2018-09-21T17:16:17.460Z,16.20
2018-09-21T17:18:52.513Z,16.80
2018-09-21T17:21:28.075Z,16.60
2018-09-21T17:24:04.052Z,16.20
2018-09-21T17:26:39.054Z,16.50
2018-09-21T17:29:14.707Z,16.00
2018-09-21T17:31:50.014Z,16.40
2018-09-21T17:34:26.057Z,17.00
2018-09-21T17:37:01.277Z,16.50
2018-09-21T17:39:36.533Z,16.90
2018-09-21T17:42:11.434Z,16.00
2018-09-21T17:44:46.738Z,15.60
2018-09-21T17:47:21.746Z,15.30
2018-09-21T17:49:56.720Z,15.10
2018-09-21T17:52:32.280Z,15.50
2018-09-21T17:55:07.441Z,16.00
2018-09-21T17:57:42.427Z,15.80
2018-09-21T18:00:17.196Z,15.60
2018-09-21T18:02:52.550Z,15.00
2018-09-21T18:05:27.434Z,15.00
2018-09-21T18:08:02.127Z,15.10
2018-09-21T18:10:37.870Z,15.10
2018-09-21T18:13:12.939Z,15.00
2018-09-21T18:15:48.495Z,14.80
2018-09-21T18:18:23.285Z,15.00
2018-09-21T18:20:58.568Z,14.60
2018-09-21T18:23:33.728Z,14.60
2018-09-21T18:26:08.936Z,14.90
2018-09-21T18:28:44.032Z,14.40
2018-09-21T18:31:19.059Z,14.60
2018-09-21T18:33:54.354Z,14.10
2018-09-21T18:36:29.960Z,14.20
2018-09-21T18:39:06.059Z,13.90
2018-09-21T18:41:42.021Z,14.20
2018-09-21T18:44:16.809Z,14.50
2018-09-21T18:46:52.068Z,14.70
2018-09-21T18:49:26.881Z,14.30
2018-09-21T18:52:02.340Z,14.10
2018-09-21T18:54:37.566Z,14.10
2018-09-21T18:57:13.493Z,14.10
2018-09-21T18:59:48.601Z,14.30
2018-09-21T19:02:23.606Z,14.20
2018-09-21T19:04:58.836Z,14.40
2018-09-21T19:07:34.279Z,14.00
2018-09-21T19:10:09.090Z,13.80
2018-09-21T19:12:44.274Z,13.70
2018-09-21T19:15:19.473Z,13.70
2018-09-21T19:17:54.492Z,13.60
2018-09-21T19:20:29.851Z,13.70
2018-09-21T19:23:05.501Z,13.90
2018-09-21T19:25:41.161Z,13.90
2018-09-21T19:28:16.676Z,13.80
2018-09-21T19:30:52.006Z,13.30
2018-09-21T19:33:28.182Z,13.30
2018-09-21T19:36:03.082Z,13.30
2018-09-21T19:38:38.224Z,13.50
2018-09-21T19:41:13.590Z,13.50
2018-09-21T19:43:48.641Z,13.60
2018-09-21T19:46:23.475Z,13.20
2018-09-21T19:48:58.560Z,13.50
2018-09-21T19:51:33.239Z,13.30
2018-09-21T19:54:08.923Z,13.30
2018-09-21T19:56:44.050Z,13.00
2018-09-21T19:59:19.054Z,13.30
2018-09-21T20:01:54.047Z,13.30
2018-09-21T20:04:28.858Z,13.30
2018-09-21T20:07:03.980Z,13.10
2018-09-21T20:09:38.958Z,13.30
2018-09-21T20:12:13.749Z,13.50
2018-09-21T20:14:49.283Z,13.50
2018-09-21T20:17:24.269Z,13.40
2018-09-21T20:19:59.370Z,13.40
2018-09-21T20:22:34.871Z,13.30
2018-09-21T20:25:10.052Z,13.10
2018-09-21T20:27:45.389Z,13.30
2018-09-21T20:31:24.490Z,13.20
2018-09-21T20:33:59.446Z,13.10
2018-09-21T20:36:34.153Z,13.00
2018-09-21T20:39:09.419Z,12.70
2018-09-21T20:41:44.780Z,12.90
2018-09-21T20:44:19.571Z,12.80
2018-09-21T20:46:54.465Z,12.90
2018-09-21T20:49:31.226Z,12.80
2018-09-21T20:52:06.701Z,12.90
2018-09-21T20:54:41.949Z,12.70
2018-09-21T20:57:17.048Z,12.70
2018-09-21T20:59:51.972Z,12.80
2018-09-21T21:02:26.832Z,13.00
2018-09-21T21:05:01.682Z,12.80
2018-09-21T21:07:37.370Z,12.60
2018-09-21T21:10:12.214Z,12.70
2018-09-21T21:12:47.203Z,12.90
2018-09-21T21:15:22.561Z,12.90
2018-09-21T21:17:57.629Z,12.90
2018-09-21T21:20:32.377Z,12.70
2018-09-21T21:23:07.842Z,12.80
2018-09-21T21:25:42.504Z,12.90
2018-09-21T21:28:17.422Z,13.10
2018-09-21T21:30:52.399Z,13.00
2018-09-21T21:33:27.206Z,12.90
2018-09-21T21:36:02.173Z,12.90
2018-09-21T21:38:36.945Z,12.80
2018-09-21T21:41:11.786Z,12.80
2018-09-21T21:43:47.497Z,12.90
2018-09-21T21:46:22.722Z,13.10
2018-09-21T21:48:57.909Z,13.10
2018-09-21T21:51:33.239Z,13.20
2018-09-21T21:54:08.273Z,13.20
2018-09-21T21:56:43.832Z,13.10
2018-09-21T21:59:19.041Z,12.90
2018-09-21T22:01:57.511Z,12.90
2018-09-21T22:04:32.872Z,13.00
2018-09-21T22:07:09.074Z,13.00
2018-09-21T22:09:44.129Z,12.70
2018-09-21T22:12:24.330Z,12.90
2018-09-21T22:14:59.163Z,12.80
2018-09-21T22:17:34.051Z,12.80
2018-09-21T22:20:09.986Z,12.90
2018-09-21T22:22:46.173Z,12.90
2018-09-21T22:25:20.894Z,12.60
2018-09-21T22:27:55.871Z,12.70
2018-09-21T22:30:30.836Z,12.70
2018-09-21T22:33:05.709Z,12.70
2018-09-21T22:35:40.604Z,12.80
2018-09-21T22:38:15.361Z,12.80
2018-09-21T22:40:50.678Z,12.80
2018-09-21T22:43:25.525Z,12.80
2018-09-21T22:46:00.390Z,12.70
2018-09-21T22:48:35.334Z,12.80
2018-09-21T22:51:10.143Z,12.70
2018-09-21T22:53:45.227Z,12.80
2018-09-21T22:56:20.381Z,12.70
2018-09-21T22:58:55.700Z,12.70
2018-09-21T23:01:30.639Z,12.70
2018-09-21T23:04:06.026Z,12.70
2018-09-21T23:06:41.217Z,12.60
2018-09-21T23:09:16.074Z,12.60
2018-09-21T23:11:51.253Z,12.70
2018-09-21T23:14:26.734Z,12.60
2018-09-21T23:17:01.474Z,12.60
2018-09-21T23:19:36.483Z,12.60
2018-09-21T23:22:11.613Z,12.60
2018-09-21T23:24:46.830Z,12.50
2018-09-21T23:27:21.787Z,12.50
2018-09-21T23:29:56.756Z,12.50
2018-09-21T23:32:32.045Z,12.30
2018-09-21T23:35:06.891Z,12.40
2018-09-21T23:37:41.895Z,12.50
2018-09-21T23:40:16.945Z,12.40
2018-09-21T23:42:51.472Z,12.60
2018-09-21T23:45:26.424Z,12.50
2018-09-21T23:48:01.200Z,12.60
2018-09-21T23:50:36.012Z,12.50
2018-09-21T23:53:10.854Z,12.50
2018-09-21T23:55:46.065Z,12.60
2018-09-21T23:58:21.040Z,12.50
